Time;durP1;ratioP1;P1;durP2;ratioP2;P2;SDS_P1;SDS_P2;PMS_P1;PMS_P2;Temp;Humidity;BMP_temperature;BMP_pressure;BME280_temperature;BME280_humidity;BME280_pressure;Samples;Min_cycle;Max_cycle;Signal;HPM_P1;HPM_P2
2022/03/11 00:01:51;;;;;;;10.70;5.43;;;2.00;80.30;;;;;;5053986;28;20108;-69
2022/03/11 00:04:17;;;;;;;15.90;6.22;;;1.90;81.10;;;;;;5054287;28;20102;-70
2022/03/11 00:06:43;;;;;;;11.07;6.45;;;1.90;83.10;;;;;;5053776;28;20106;-69
2022/03/11 00:09:08;;;;;;;9.68;5.55;;;1.90;83.90;;;;;;5053993;28;20045;-69
2022/03/11 00:11:34;;;;;;;15.40;7.53;;;1.80;84.70;;;;;;5052718;28;20025;-69
2022/03/11 00:14:00;;;;;;;15.43;7.13;;;1.80;85.90;;;;;;5053854;28;20036;-69
2022/03/11 00:16:27;;;;;;;12.07;7.25;;;1.70;88.10;;;;;;5053251;28;20100;-69
2022/03/11 00:18:52;;;;;;;18.30;7.97;;;1.70;89.60;;;;;;5054261;28;20087;-69
2022/03/11 00:21:18;;;;;;;13.15;7.93;;;1.70;90.10;;;;;;5053561;28;20037;-69
2022/03/11 00:23:44;;;;;;;16.75;7.88;;;1.70;90.80;;;;;;5053331;28;20025;-69
2022/03/11 00:26:10;;;;;;;17.17;8.35;;;1.70;91.20;;;;;;5053493;28;20031;-70
2022/03/11 00:28:37;;;;;;;19.55;8.73;;;1.60;92.10;;;;;;5052925;28;20507;-70
2022/03/11 00:31:04;;;;;;;13.55;7.00;;;1.60;92.80;;;;;;5054059;28;20031;-69
2022/03/11 00:33:30;;;;;;;14.85;8.02;;;1.60;93.10;;;;;;5052823;28;20033;-69
2022/03/11 00:35:56;;;;;;;14.95;8.00;;;1.50;93.80;;;;;;5053924;28;20033;-71
2022/03/11 00:38:21;;;;;;;16.42;7.75;;;1.50;94.50;;;;;;5052840;28;20458;-70
2022/03/11 00:40:47;;;;;;;16.08;8.00;;;1.40;95.00;;;;;;5053408;28;20083;-69
2022/03/11 00:43:13;;;;;;;17.58;8.93;;;1.40;95.90;;;;;;5053025;28;20025;-70
2022/03/11 00:45:38;;;;;;;16.38;8.68;;;1.40;96.40;;;;;;5052390;28;20073;-70
2022/03/11 00:48:04;;;;;;;15.75;8.10;;;1.30;96.70;;;;;;5053491;28;20037;-69
2022/03/11 00:50:30;;;;;;;17.33;8.95;;;1.30;97.30;;;;;;5051651;28;20123;-69
2022/03/11 00:52:55;;;;;;;17.50;8.45;;;1.30;98.10;;;;;;5053328;28;20043;-69
2022/03/11 00:55:21;;;;;;;17.42;8.63;;;1.20;98.60;;;;;;5052549;28;20036;-69
2022/03/11 00:57:46;;;;;;;15.68;8.73;;;1.20;99.00;;;;;;5052991;28;20107;-69
2022/03/11 01:00:13;;;;;;;18.08;9.35;;;1.10;99.30;;;;;;5053578;28;20470;-69
2022/03/11 01:02:39;;;;;;;20.83;10.52;;;1.10;99.90;;;;;;5052858;28;20203;-69
2022/03/11 01:05:07;;;;;;;19.58;10.50;;;1.10;99.90;;;;;;5051638;28;20029;-69
2022/03/11 01:07:33;;;;;;;20.67;10.45;;;1.10;99.90;;;;;;5050943;28;20120;-68
2022/03/11 01:09:59;;;;;;;23.45;10.85;;;1.10;99.90;;;;;;5052640;28;20037;-69
2022/03/11 01:12:25;;;;;;;19.70;11.48;;;1.10;99.90;;;;;;5051757;28;20024;-69
2022/03/11 01:14:51;;;;;;;22.08;10.63;;;1.00;99.90;;;;;;5053077;28;20025;-69
2022/03/11 01:17:17;;;;;;;23.08;10.05;;;1.00;99.90;;;;;;5053032;28;20025;-68
2022/03/11 01:19:43;;;;;;;18.33;9.85;;;1.00;99.90;;;;;;5052099;28;20035;-69
2022/03/11 01:22:08;;;;;;;18.73;10.63;;;1.00;99.90;;;;;;5052561;28;20029;-69
2022/03/11 01:24:34;;;;;;;18.45;10.00;;;0.90;99.90;;;;;;5051724;28;20021;-69
2022/03/11 01:27:00;;;;;;;21.60;10.02;;;0.90;99.90;;;;;;5053079;28;20462;-69
2022/03/11 01:29:26;;;;;;;20.08;10.40;;;0.80;99.90;;;;;;5052091;28;20063;-68
2022/03/11 01:31:52;;;;;;;20.65;11.43;;;0.80;99.90;;;;;;5052399;28;20486;-69
2022/03/11 01:34:19;;;;;;;19.13;10.35;;;0.80;99.90;;;;;;5052404;28;20108;-69
2022/03/11 01:36:44;;;;;;;21.02;10.68;;;0.70;99.90;;;;;;5051762;28;20035;-69
2022/03/11 01:39:10;;;;;;;20.23;10.40;;;0.60;99.90;;;;;;5052483;28;20033;-69
2022/03/11 01:41:36;;;;;;;21.05;11.20;;;0.60;99.90;;;;;;5051654;28;20108;-68
2022/03/11 01:44:06;;;;;;;21.15;11.75;;;0.50;99.90;;;;;;5051892;28;20029;-68
2022/03/11 01:46:32;;;;;;;20.80;11.60;;;0.50;99.90;;;;;;5051683;28;20091;-68
2022/03/11 01:48:59;;;;;;;21.98;12.90;;;0.40;99.90;;;;;;5052157;28;20437;-69
2022/03/11 01:51:29;;;;;;;23.13;12.50;;;0.40;99.90;;;;;;5051392;28;20389;-69
2022/03/11 01:53:55;;;;;;;22.52;11.73;;;0.40;99.90;;;;;;5051955;28;20498;-69
2022/03/11 01:56:24;;;;;;;25.27;12.18;;;0.40;99.90;;;;;;5051038;28;20119;-68
2022/03/11 01:58:51;;;;;;;24.45;12.52;;;0.40;99.90;;;;;;5051813;28;20506;-68
2022/03/11 02:01:18;;;;;;;25.70;12.93;;;0.30;99.90;;;;;;5051931;28;20075;-68
2022/03/11 02:03:44;;;;;;;25.33;13.15;;;0.30;99.90;;;;;;5051183;28;20032;-68
2022/03/11 02:06:12;;;;;;;21.85;13.15;;;0.30;99.90;;;;;;5051991;28;20363;-68
2022/03/11 02:08:37;;;;;;;20.20;12.18;;;0.40;99.90;;;;;;5050972;28;20045;-68
2022/03/11 02:11:03;;;;;;;24.35;13.13;;;0.30;99.90;;;;;;5052048;28;20033;-68
2022/03/11 02:13:51;;;;;;;24.83;13.38;;;0.30;99.90;;;;;;5050714;28;20086;-68
2022/03/11 02:16:19;;;;;;;25.27;14.88;;;0.20;99.90;;;;;;5052005;28;20035;-68
2022/03/11 02:18:45;;;;;;;23.50;13.85;;;0.20;99.90;;;;;;5051278;28;20388;-68
2022/03/11 02:21:12;;;;;;;25.08;14.32;;;0.20;99.90;;;;;;5051307;28;20033;-68
2022/03/11 02:23:45;;;;;;;27.92;15.00;;;0.30;99.90;;;;;;5050503;28;20505;-68
2022/03/11 02:26:12;;;;;;;25.15;13.55;;;0.30;99.90;;;;;;5051685;28;20025;-68
2022/03/11 02:28:37;;;;;;;24.25;13.90;;;0.30;99.90;;;;;;5051018;28;20029;-68
2022/03/11 02:31:03;;;;;;;24.25;13.65;;;0.20;99.90;;;;;;5051463;28;20029;-69
2022/03/11 02:33:29;;;;;;;27.85;15.00;;;0.20;99.90;;;;;;5050720;28;20029;-68
2022/03/11 02:35:54;;;;;;;29.15;15.82;;;0.20;99.90;;;;;;5051933;28;20032;-68
2022/03/11 02:38:20;;;;;;;28.27;14.68;;;0.20;99.90;;;;;;5051503;28;20033;-68
2022/03/11 02:40:45;;;;;;;25.67;14.95;;;0.20;99.90;;;;;;5050851;28;20029;-69
2022/03/11 02:43:12;;;;;;;27.17;15.25;;;0.20;99.90;;;;;;5051438;28;20029;-69
2022/03/11 02:45:40;;;;;;;26.60;15.10;;;0.20;99.90;;;;;;5050688;28;20096;-68
2022/03/11 02:48:06;;;;;;;31.63;15.63;;;0.20;99.90;;;;;;5051597;28;20482;-69
2022/03/11 02:50:32;;;;;;;28.33;16.35;;;0.20;99.90;;;;;;5050766;28;20072;-69
2022/03/11 02:52:58;;;;;;;30.63;15.82;;;0.20;99.90;;;;;;5051155;28;20390;-69
2022/03/11 02:55:23;;;;;;;25.13;14.55;;;0.20;99.90;;;;;;5051338;28;20029;-69
2022/03/11 02:57:49;;;;;;;31.48;16.02;;;0.10;99.90;;;;;;5050704;28;20079;-69
2022/03/11 03:00:15;;;;;;;29.17;15.32;;;0.10;99.90;;;;;;5051036;28;20045;-69
2022/03/11 03:02:41;;;;;;;28.20;15.43;;;0.10;99.90;;;;;;5050506;28;20104;-69
2022/03/11 03:05:07;;;;;;;27.25;16.45;;;0.10;99.90;;;;;;5051587;28;20172;-69
2022/03/11 03:07:33;;;;;;;30.38;16.80;;;0.00;99.90;;;;;;5050735;28;20116;-69
2022/03/11 03:09:58;;;;;;;33.97;18.20;;;0.00;99.90;;;;;;5051149;28;20171;-69
2022/03/11 03:12:27;;;;;;;34.92;18.25;;;0.10;99.90;;;;;;5050712;28;20029;-69
2022/03/11 03:14:53;;;;;;;37.13;19.38;;;0.30;99.90;;;;;;5053753;28;20033;-69
2022/03/11 03:17:21;;;;;;;31.27;17.90;;;0.40;99.90;;;;;;5055378;28;20035;-69
2022/03/11 03:19:47;;;;;;;39.50;18.38;;;0.60;99.90;;;;;;5054376;28;20026;-69
2022/03/11 03:22:13;;;;;;;38.03;19.00;;;0.70;99.90;;;;;;5055331;28;20113;-69
2022/03/11 03:24:39;;;;;;;31.27;17.23;;;0.90;99.90;;;;;;5054222;28;20028;-69
2022/03/11 03:27:04;;;;;;;33.78;18.35;;;1.00;99.90;;;;;;5054918;28;20375;-69
2022/03/11 03:29:30;;;;;;;36.47;19.02;;;1.20;99.90;;;;;;5054195;28;20455;-69
2022/03/11 03:31:59;;;;;;;35.47;17.65;;;1.30;99.90;;;;;;5054728;28;20441;-68
2022/03/11 03:34:28;;;;;;;34.17;18.13;;;1.30;99.90;;;;;;5054328;28;20061;-68
2022/03/11 03:36:55;;;;;;;31.83;18.13;;;1.50;99.90;;;;;;5054954;28;20029;-68
2022/03/11 03:39:20;;;;;;;33.42;18.77;;;1.60;99.90;;;;;;5054869;28;20099;-68
2022/03/11 03:41:46;;;;;;;36.53;18.60;;;1.50;99.90;;;;;;5053751;28;20559;-68
2022/03/11 03:44:11;;;;;;;33.53;17.35;;;1.50;99.90;;;;;;5053181;28;20052;-69
2022/03/11 03:46:37;;;;;;;31.58;17.80;;;1.40;99.90;;;;;;5053985;28;20055;-69
2022/03/11 03:49:03;;;;;;;30.05;16.42;;;1.40;99.90;;;;;;5054638;28;20029;-69
2022/03/11 03:51:28;;;;;;;34.47;18.15;;;1.30;99.90;;;;;;5053563;28;20040;-69
2022/03/11 03:53:54;;;;;;;34.25;18.63;;;1.20;99.90;;;;;;5053102;28;20500;-69
2022/03/11 03:56:20;;;;;;;34.58;19.02;;;1.00;99.90;;;;;;5053174;28;20056;-69
2022/03/11 03:58:45;;;;;;;36.38;19.38;;;0.90;99.90;;;;;;5053099;28;20056;-69
2022/03/11 04:01:11;;;;;;;33.40;18.13;;;0.80;99.90;;;;;;5054253;28;20086;-69
2022/03/11 04:03:36;;;;;;;30.83;17.23;;;0.90;99.90;;;;;;5053254;28;20401;-69
2022/03/11 04:06:02;;;;;;;32.67;18.95;;;0.80;99.90;;;;;;5054407;28;20104;-69
2022/03/11 04:08:30;;;;;;;34.80;18.35;;;0.70;99.90;;;;;;5053688;28;20108;-70
2022/03/11 04:10:55;;;;;;;29.67;16.13;;;0.70;99.90;;;;;;5054290;28;20021;-69
2022/03/11 04:13:21;;;;;;;32.47;17.10;;;0.60;99.90;;;;;;5053711;28;20069;-68
2022/03/11 04:15:46;;;;;;;31.95;17.65;;;0.50;99.90;;;;;;5053216;28;20569;-69
2022/03/11 04:18:12;;;;;;;30.58;17.58;;;0.50;99.90;;;;;;5054150;28;20485;-69
2022/03/11 04:20:38;;;;;;;34.22;17.52;;;0.50;99.90;;;;;;5053366;28;20060;-69
2022/03/11 04:23:04;;;;;;;29.38;16.63;;;0.60;99.90;;;;;;5037074;28;20029;-69
2022/03/11 04:25:30;;;;;;;32.88;17.83;;;0.60;99.90;;;;;;5031989;28;20028;-69
2022/03/11 04:27:55;;;;;;;33.08;17.20;;;0.60;99.90;;;;;;5034015;28;20033;-69
2022/03/11 04:30:21;;;;;;;29.25;16.55;;;0.60;99.90;;;;;;5034050;28;20033;-69
2022/03/11 04:32:47;;;;;;;34.03;17.40;;;0.50;99.90;;;;;;5047076;28;20591;-70
2022/03/11 04:35:12;;;;;;;34.15;17.88;;;0.50;99.90;;;;;;5053526;28;20064;-69
2022/03/11 04:37:38;;;;;;;32.20;17.77;;;0.60;99.90;;;;;;5052752;28;20028;-70
2022/03/11 04:40:05;;;;;;;38.13;18.27;;;0.50;99.90;;;;;;5042303;28;20037;-69
2022/03/11 04:42:30;;;;;;;31.33;16.73;;;0.50;99.90;;;;;;5044761;28;20035;-69
2022/03/11 04:44:56;;;;;;;29.88;17.00;;;0.40;99.90;;;;;;5053862;28;20187;-69
2022/03/11 04:47:22;;;;;;;30.17;16.17;;;0.40;99.90;;;;;;5053232;28;20040;-70
2022/03/11 04:49:48;;;;;;;34.63;17.23;;;0.30;99.90;;;;;;5039034;28;20034;-68
2022/03/11 04:52:13;;;;;;;34.70;16.40;;;0.30;99.90;;;;;;5039342;28;20074;-69
2022/03/11 04:54:39;;;;;;;28.23;14.75;;;0.20;99.90;;;;;;5040437;28;20034;-70
2022/03/11 04:57:04;;;;;;;27.30;15.73;;;0.20;99.90;;;;;;5033515;28;20070;-70
2022/03/11 04:59:30;;;;;;;31.20;16.27;;;0.20;99.90;;;;;;5032753;28;20049;-70
2022/03/11 05:01:56;;;;;;;31.58;16.17;;;0.10;99.90;;;;;;5033203;28;20041;-69
2022/03/11 05:04:21;;;;;;;29.48;16.00;;;0.10;99.90;;;;;;5033059;28;20030;-69
2022/03/11 05:06:47;;;;;;;27.88;14.85;;;0.10;99.90;;;;;;5032498;28;20127;-69
2022/03/11 05:09:12;;;;;;;23.77;14.18;;;0.00;99.90;;;;;;5034186;28;20045;-69
2022/03/11 05:11:38;;;;;;;27.38;14.32;;;0.10;99.90;;;;;;5032791;28;20375;-69
2022/03/11 05:14:04;;;;;;;29.05;14.32;;;0.00;99.90;;;;;;5051279;28;20036;-69
2022/03/11 05:16:30;;;;;;;27.73;13.90;;;-0.10;99.90;;;;;;5052382;28;20083;-69
2022/03/11 05:18:56;;;;;;;28.02;14.32;;;-0.10;99.90;;;;;;5052927;28;20429;-69
2022/03/11 05:21:21;;;;;;;23.77;13.02;;;-0.10;99.90;;;;;;5042514;28;20501;-69
2022/03/11 05:23:47;;;;;;;23.45;13.60;;;-0.20;99.90;;;;;;5048105;28;20025;-68
2022/03/11 05:26:31;;;;;;;31.75;14.00;;;-0.30;99.90;;;;;;5052836;28;20025;-68
2022/03/11 05:28:58;;;;;;;27.00;13.38;;;-0.40;99.90;;;;;;5052670;28;20040;-68
2022/03/11 05:31:28;;;;;;;23.95;12.60;;;-0.50;99.90;;;;;;5052508;28;20037;-69
2022/03/11 05:33:55;;;;;;;23.70;13.20;;;-0.50;99.90;;;;;;5051410;28;20125;-68
2022/03/11 05:36:22;;;;;;;25.15;12.57;;;-0.60;99.90;;;;;;5046844;28;20039;-70
2022/03/11 05:38:48;;;;;;;23.42;12.52;;;-0.60;99.90;;;;;;5031888;28;20052;-69
2022/03/11 05:41:13;;;;;;;25.27;12.18;;;-0.70;99.90;;;;;;5032731;28;20021;-70
2022/03/11 05:43:39;;;;;;;23.15;12.25;;;-0.60;99.90;;;;;;5046240;28;20036;-67
2022/03/11 05:46:05;;;;;;;22.27;11.00;;;-0.60;99.60;;;;;;5052294;28;20025;-69
2022/03/11 05:48:32;;;;;;;22.63;11.15;;;-0.60;99.60;;;;;;5051722;28;20458;-69
2022/03/11 05:50:57;;;;;;;20.30;10.02;;;-0.70;99.80;;;;;;5051949;28;20516;-68
2022/03/11 05:53:23;;;;;;;21.42;10.93;;;-0.80;99.80;;;;;;5050449;28;20064;-68
2022/03/11 05:55:49;;;;;;;18.83;9.95;;;-0.70;99.80;;;;;;5047546;28;20167;-68
2022/03/11 05:58:14;;;;;;;17.95;10.45;;;-0.80;99.60;;;;;;5052251;28;20524;-68
2022/03/11 06:00:40;;;;;;;19.73;10.18;;;-0.80;99.50;;;;;;5051067;28;20423;-68
2022/03/11 06:03:06;;;;;;;22.02;10.18;;;-0.90;99.60;;;;;;5051236;28;20355;-68
2022/03/11 06:05:32;;;;;;;22.90;10.57;;;-0.90;99.50;;;;;;5051687;28;20044;-68
2022/03/11 06:07:57;;;;;;;19.63;10.23;;;-0.90;99.00;;;;;;5052283;28;20025;-68
2022/03/11 06:10:23;;;;;;;19.77;10.07;;;-0.80;97.90;;;;;;5048945;28;20033;-69
2022/03/11 06:12:49;;;;;;;20.95;10.70;;;-0.80;97.60;;;;;;5048675;28;20032;-68
2022/03/11 06:15:15;;;;;;;18.17;9.73;;;-0.80;97.40;;;;;;5049956;28;20385;-69
2022/03/11 06:17:41;;;;;;;20.00;9.85;;;-0.70;97.20;;;;;;5050760;28;20031;-69
2022/03/11 06:20:08;;;;;;;16.63;8.80;;;-0.70;97.20;;;;;;5052117;28;20179;-69
2022/03/11 06:22:36;;;;;;;21.17;9.80;;;-0.70;96.80;;;;;;5050128;28;20071;-68
2022/03/11 06:25:05;;;;;;;16.73;8.63;;;-0.70;96.40;;;;;;5051381;28;20017;-68
2022/03/11 06:27:31;;;;;;;19.98;8.85;;;-0.50;95.80;;;;;;5048841;28;20515;-70
2022/03/11 06:29:57;;;;;;;18.35;9.23;;;-0.50;95.60;;;;;;5045931;28;20117;-69
2022/03/11 06:32:22;;;;;;;14.90;8.10;;;-0.40;94.90;;;;;;5050315;28;20406;-69
2022/03/11 06:34:48;;;;;;;17.75;7.50;;;-0.40;94.80;;;;;;5049589;28;20067;-69
2022/03/11 06:37:15;;;;;;;18.38;9.02;;;-0.30;93.90;;;;;;5051280;28;20067;-69
2022/03/11 06:39:41;;;;;;;15.38;7.80;;;-0.30;93.40;;;;;;5051003;28;20035;-69
2022/03/11 06:42:06;;;;;;;17.13;8.52;;;-0.20;93.40;;;;;;5049758;28;20050;-69
2022/03/11 06:44:32;;;;;;;16.95;7.78;;;-0.20;93.00;;;;;;5050426;28;20029;-68
2022/03/11 06:46:58;;;;;;;16.90;7.65;;;-0.10;92.20;;;;;;5050742;28;20029;-69
2022/03/11 06:49:24;;;;;;;17.58;7.80;;;0.00;92.10;;;;;;5053544;28;20115;-79
2022/03/11 06:51:49;;;;;;;20.48;8.00;;;0.10;91.90;;;;;;5053608;28;20112;-69
2022/03/11 06:54:15;;;;;;;13.55;7.30;;;0.20;91.00;;;;;;5053067;28;20104;-70
2022/03/11 06:56:41;;;;;;;16.45;7.43;;;0.20;90.60;;;;;;5035170;28;20025;-70
2022/03/11 06:59:06;;;;;;;14.27;7.88;;;0.40;89.70;;;;;;5035646;28;20049;-71
2022/03/11 07:01:32;;;;;;;18.45;7.05;;;0.40;88.80;;;;;;5035549;28;20025;-68
2022/03/11 07:03:58;;;;;;;17.42;7.78;;;0.50;88.20;;;;;;5046784;28;20067;-71
2022/03/11 07:06:24;;;;;;;14.63;7.32;;;0.60;86.60;;;;;;5044916;28;20040;-77
2022/03/11 07:08:50;;;;;;;16.35;7.68;;;0.70;85.00;;;;;;5054516;28;20049;-72
2022/03/11 07:11:16;;;;;;;15.30;6.90;;;0.70;83.50;;;;;;5035700;28;20026;-69
2022/03/11 07:13:44;;;;;;;15.32;7.78;;;0.90;83.10;;;;;;5047756;28;20100;-71
2022/03/11 07:16:10;;;;;;;13.38;7.45;;;0.90;82.10;;;;;;5054853;28;20112;-67
2022/03/11 07:18:36;;;;;;;13.85;7.20;;;1.10;80.80;;;;;;5057507;28;20052;-69
2022/03/11 07:21:01;;;;;;;14.75;6.60;;;1.10;79.40;;;;;;5055234;28;20075;-68
2022/03/11 07:23:28;;;;;;;17.75;7.07;;;1.20;79.40;;;;;;5055201;28;20031;-68
2022/03/11 07:25:54;;;;;;;11.25;7.20;;;1.20;78.10;;;;;;5053004;28;20577;-68
2022/03/11 07:28:20;;;;;;;16.13;7.43;;;1.40;77.20;;;;;;5053180;28;20032;-68
2022/03/11 07:30:46;;;;;;;16.73;7.47;;;1.60;76.30;;;;;;5053132;28;20514;-68
2022/03/11 07:33:12;;;;;;;13.38;7.15;;;1.60;76.50;;;;;;5053470;28;20036;-69
2022/03/11 07:35:38;;;;;;;13.73;6.70;;;1.60;75.30;;;;;;5053013;28;20029;-70
2022/03/11 07:38:04;;;;;;;20.13;6.63;;;1.70;75.50;;;;;;5052138;28;20443;-70
2022/03/11 07:40:30;;;;;;;12.10;6.20;;;1.70;73.90;;;;;;5052762;28;20044;-69
2022/03/11 07:42:55;;;;;;;14.23;6.82;;;1.80;73.60;;;;;;5050001;28;20261;-71
2022/03/11 07:45:21;;;;;;;13.25;7.40;;;1.90;73.00;;;;;;5054596;28;20029;-70
2022/03/11 07:47:47;;;;;;;16.67;7.25;;;1.90;73.00;;;;;;5054387;28;20032;-71
2022/03/11 07:50:13;;;;;;;16.20;7.82;;;2.10;72.50;;;;;;5053856;28;20086;-67
2022/03/11 07:52:39;;;;;;;13.93;6.90;;;2.10;72.50;;;;;;5052910;28;20147;-67
2022/03/11 07:55:10;;;;;;;14.00;6.82;;;2.20;71.70;;;;;;5053140;28;20044;-67
2022/03/11 07:57:37;;;;;;;11.68;6.85;;;2.30;71.20;;;;;;5053518;28;20166;-68
2022/03/11 08:00:06;;;;;;;14.38;7.10;;;2.40;71.40;;;;;;5052659;28;20506;-72
2022/03/11 08:02:32;;;;;;;12.57;7.13;;;2.50;71.20;;;;;;5053372;28;20029;-69
2022/03/11 08:04:58;;;;;;;11.38;6.30;;;2.60;70.30;;;;;;5052490;28;20037;-73
2022/03/11 08:07:24;;;;;;;15.38;7.45;;;2.70;70.30;;;;;;5053264;28;20094;-73
2022/03/11 08:09:49;;;;;;;13.23;7.32;;;2.80;70.40;;;;;;5053181;28;20075;-71
2022/03/11 08:12:15;;;;;;;16.77;7.68;;;2.90;70.70;;;;;;5053757;28;20127;-72
2022/03/11 08:14:41;;;;;;;16.13;8.73;;;3.00;70.80;;;;;;5053269;28;20037;-72
2022/03/11 08:17:07;;;;;;;14.00;7.95;;;3.10;70.80;;;;;;5045968;28;20029;-73
2022/03/11 08:19:33;;;;;;;18.63;8.93;;;3.20;70.90;;;;;;5055140;28;20064;-72
2022/03/11 08:21:59;;;;;;;13.98;9.05;;;3.30;70.30;;;;;;5058834;28;20064;-73
2022/03/11 08:24:24;;;;;;;18.35;8.52;;;3.50;70.10;;;;;;5051611;28;20074;-73
2022/03/11 08:26:50;;;;;;;18.08;8.95;;;3.60;70.00;;;;;;5048029;28;20977;-73
2022/03/11 08:29:17;;;;;;;15.50;8.90;;;3.70;69.40;;;;;;5053955;28;20426;-73
2022/03/11 08:31:46;;;;;;;14.98;8.45;;;3.80;69.30;;;;;;5053081;28;20029;-73
2022/03/11 08:34:12;;;;;;;17.90;7.97;;;3.90;68.40;;;;;;5052771;28;20115;-73
2022/03/11 08:36:39;;;;;;;15.43;8.43;;;4.00;68.30;;;;;;5052505;28;20100;-71
2022/03/11 08:39:06;;;;;;;20.17;9.63;;;4.10;68.00;;;;;;5052370;28;20083;-73
2022/03/11 08:41:32;;;;;;;17.00;9.40;;;4.20;68.20;;;;;;5053042;28;20086;-74
2022/03/11 08:43:59;;;;;;;20.60;9.30;;;4.30;68.40;;;;;;5051509;28;20046;-72
2022/03/11 08:46:26;;;;;;;18.73;9.82;;;4.40;67.50;;;;;;5051607;28;20116;-73
2022/03/11 08:48:52;;;;;;;18.83;9.38;;;4.60;66.90;;;;;;5060920;28;20040;-70
2022/03/11 08:51:18;;;;;;;19.73;9.38;;;4.60;66.60;;;;;;5051141;28;20108;-73
2022/03/11 08:53:44;;;;;;;15.90;8.98;;;4.70;65.90;;;;;;5051551;28;20104;-69
2022/03/11 08:56:10;;;;;;;18.33;9.10;;;4.70;65.70;;;;;;5053032;28;20116;-68
2022/03/11 08:58:37;;;;;;;20.17;9.23;;;4.90;65.90;;;;;;5052371;28;20061;-67
2022/03/11 09:01:02;;;;;;;15.10;8.55;;;4.90;65.40;;;;;;5051888;28;20025;-67
2022/03/11 09:03:28;;;;;;;18.40;9.35;;;5.10;65.40;;;;;;5051007;28;20543;-67
2022/03/11 09:05:55;;;;;;;28.58;9.30;;;5.20;65.10;;;;;;5051561;28;20499;-67
2022/03/11 09:08:21;;;;;;;25.38;9.35;;;5.30;64.50;;;;;;5052295;28;20115;-67
2022/03/11 09:10:47;;;;;;;17.83;8.38;;;5.40;63.60;;;;;;5050568;28;20194;-67
2022/03/11 09:13:12;;;;;;;15.45;9.23;;;5.50;63.20;;;;;;5051371;28;20069;-67
2022/03/11 09:15:38;;;;;;;20.73;9.10;;;5.50;62.90;;;;;;5051212;28;20029;-67
2022/03/11 09:18:03;;;;;;;19.35;8.98;;;5.60;63.10;;;;;;5057541;28;20121;-67
2022/03/11 09:20:29;;;;;;;15.80;8.30;;;5.70;63.00;;;;;;5060273;28;20466;-68
2022/03/11 09:22:55;;;;;;;18.77;8.88;;;5.70;62.90;;;;;;5050551;28;20151;-67
2022/03/11 09:25:21;;;;;;;27.33;8.68;;;5.90;61.90;;;;;;5051997;28;20029;-67
2022/03/11 09:27:46;;;;;;;65.50;11.13;;;6.10;61.20;;;;;;5051017;28;20376;-67
2022/03/11 09:30:13;;;;;;;24.10;9.15;;;6.10;60.60;;;;;;5051997;28;20035;-67
2022/03/11 09:32:39;;;;;;;26.75;8.82;;;6.20;60.50;;;;;;5050166;28;20493;-66
2022/03/11 09:35:06;;;;;;;24.08;8.30;;;6.30;59.60;;;;;;5099222;28;20044;-73
2022/03/11 09:37:32;;;;;;;24.27;8.98;;;6.30;60.00;;;;;;5052433;28;20440;-68
2022/03/11 09:39:58;;;;;;;24.27;8.93;;;6.30;60.20;;;;;;5048824;28;20024;-67
2022/03/11 09:42:24;;;;;;;26.88;8.18;;;6.40;59.70;;;;;;5051905;28;20078;-75
2022/03/11 09:44:54;;;;;;;18.20;8.30;;;6.50;59.30;;;;;;5050904;28;20033;-76
2022/03/11 09:47:21;;;;;;;20.70;9.00;;;6.50;59.60;;;;;;5051471;28;20033;-70
2022/03/11 09:49:48;;;;;;;21.17;8.77;;;6.70;59.20;;;;;;5052937;28;20067;-75
2022/03/11 09:52:15;;;;;;;14.68;8.55;;;6.70;58.90;;;;;;5052899;28;20028;-75
2022/03/11 09:54:41;;;;;;;21.67;8.80;;;6.80;58.20;;;;;;5051708;28;20032;-78
2022/03/11 09:57:07;;;;;;;23.95;9.00;;;6.80;58.30;;;;;;5051974;28;20394;-77
2022/03/11 09:59:33;;;;;;;43.45;10.68;;;7.00;58.40;;;;;;5051462;28;20508;-74
2022/03/11 10:01:58;;;;;;;18.42;9.23;;;7.10;57.70;;;;;;5051210;28;20100;-71
2022/03/11 10:04:25;;;;;;;16.55;8.35;;;7.10;57.70;;;;;;5051925;28;20025;-68
2022/03/11 10:06:52;;;;;;;17.13;9.85;;;7.20;57.50;;;;;;5050809;28;20040;-74
2022/03/11 10:09:17;;;;;;;15.68;9.20;;;7.40;57.50;;;;;;5051695;28;20052;-73
2022/03/11 10:11:45;;;;;;;21.05;10.23;;;7.40;57.80;;;;;;5050977;28;20036;-72
2022/03/11 10:14:11;;;;;;;20.05;9.43;;;7.50;57.70;;;;;;5049735;28;20025;-72
2022/03/11 10:16:37;;;;;;;20.15;9.77;;;7.60;57.30;;;;;;5051165;28;20044;-73
2022/03/11 10:19:06;;;;;;;17.35;9.57;;;7.70;57.40;;;;;;5051097;28;20029;-73
2022/03/11 10:21:41;;;;;;;19.90;9.97;;;7.80;57.40;;;;;;5050438;28;20029;-73
2022/03/11 10:24:10;;;;;;;20.58;9.95;;;8.00;57.10;;;;;;5051706;28;20366;-73
2022/03/11 10:26:41;;;;;;;16.60;9.40;;;8.10;56.50;;;;;;5051379;28;20029;-73
2022/03/11 10:29:09;;;;;;;22.02;9.88;;;8.20;56.20;;;;;;5051792;28;20064;-73
2022/03/11 10:31:39;;;;;;;16.98;9.70;;;8.30;55.90;;;;;;5050783;28;20394;-72
2022/03/11 10:34:25;;;;;;;19.02;9.73;;;8.50;55.20;;;;;;5051404;28;20029;-72
2022/03/11 10:36:55;;;;;;;16.42;9.00;;;8.60;55.20;;;;;;5049928;28;20056;-72
2022/03/11 10:39:28;;;;;;;18.42;9.52;;;8.70;54.60;;;;;;5050735;28;20025;-72
2022/03/11 10:41:56;;;;;;;17.10;9.70;;;8.80;54.70;;;;;;5050280;28;20044;-72
2022/03/11 10:44:27;;;;;;;17.65;9.48;;;8.90;54.20;;;;;;5052133;28;20082;-73
2022/03/11 10:46:54;;;;;;;20.88;9.30;;;9.00;54.10;;;;;;5051220;28;20036;-73
2022/03/11 10:49:33;;;;;;;26.50;9.68;;;9.10;54.00;;;;;;5051944;28;20059;-73
2022/03/11 10:52:00;;;;;;;15.98;9.35;;;9.30;53.30;;;;;;5050151;28;20021;-73
2022/03/11 10:54:27;;;;;;;25.63;10.18;;;9.40;53.10;;;;;;5051457;28;20159;-72
2022/03/11 10:56:55;;;;;;;23.67;9.35;;;9.50;53.20;;;;;;5050186;28;20394;-72
2022/03/11 10:59:27;;;;;;;21.75;9.82;;;9.60;53.10;;;;;;5051031;28;20052;-72
2022/03/11 11:01:56;;;;;;;18.50;9.02;;;9.80;52.40;;;;;;5050414;28;20031;-72
2022/03/11 11:04:22;;;;;;;17.05;9.07;;;9.90;52.20;;;;;;5050973;28;20029;-71
2022/03/11 11:06:49;;;;;;;14.63;8.65;;;10.00;51.90;;;;;;5050268;28;20031;-72
2022/03/11 11:09:17;;;;;;;22.90;9.27;;;10.10;51.50;;;;;;5050805;28;20127;-73
2022/03/11 11:11:43;;;;;;;17.75;10.30;;;10.20;51.70;;;;;;5050527;28;20103;-71
2022/03/11 11:14:10;;;;;;;18.35;10.68;;;10.30;51.00;;;;;;5051287;28;20025;-75
2022/03/11 11:16:44;;;;;;;14.45;9.43;;;10.40;50.40;;;;;;5050613;28;20096;-73
2022/03/11 11:19:15;;;;;;;15.63;9.07;;;10.60;50.10;;;;;;5050897;28;20474;-73
2022/03/11 11:21:43;;;;;;;16.23;9.68;;;10.60;50.30;;;;;;5050733;28;20063;-69
2022/03/11 11:24:15;;;;;;;19.00;10.13;;;10.60;50.80;;;;;;5050909;28;20033;-75
2022/03/11 11:26:45;;;;;;;15.93;10.05;;;10.70;50.10;;;;;;5049255;28;20029;-70
2022/03/11 11:29:12;;;;;;;14.25;9.18;;;10.80;50.00;;;;;;5051208;28;20033;-73
2022/03/11 11:31:41;;;;;;;18.30;10.07;;;10.80;49.90;;;;;;5050961;28;20401;-72
2022/03/11 11:34:30;;;;;;;19.27;10.80;;;10.80;49.40;;;;;;5050501;28;20076;-73
2022/03/11 11:36:56;;;;;;;16.80;10.35;;;10.90;49.50;;;;;;5054020;28;20036;-73
2022/03/11 11:39:34;;;;;;;14.60;9.68;;;10.90;49.30;;;;;;5053993;28;20052;-73
2022/03/11 11:42:05;;;;;;;18.65;11.48;;;10.90;49.20;;;;;;5053864;28;20025;-72
2022/03/11 11:44:33;;;;;;;19.40;10.93;;;11.00;49.30;;;;;;5054857;28;20067;-72
2022/03/11 11:47:17;;;;;;;18.55;9.73;;;11.10;49.60;;;;;;5053870;28;20040;-72
2022/03/11 11:49:49;;;;;;;17.67;10.15;;;11.40;49.20;;;;;;5054129;28;20094;-70
2022/03/11 11:52:38;;;;;;;15.27;10.27;;;11.50;49.10;;;;;;5054562;28;20055;-72
2022/03/11 11:55:17;;;;;;;19.52;10.57;;;11.60;48.50;;;;;;5053575;28;20458;-72
2022/03/11 11:57:43;;;;;;;22.13;10.18;;;11.90;48.20;;;;;;5054125;28;20037;-70
2022/03/11 12:00:38;;;;;;;17.48;10.18;;;12.20;47.50;;;;;;5054204;28;20512;-72
2022/03/11 12:03:05;;;;;;;18.73;10.05;;;12.50;46.80;;;;;;5053662;28;20029;-72
2022/03/11 12:05:51;;;;;;;15.65;10.40;;;12.90;46.90;;;;;;5054113;28;20025;-72
2022/03/11 12:08:49;;;;;;;14.55;10.02;;;13.10;46.10;;;;;;5052958;28;20041;-73
2022/03/11 12:11:38;;;;;;;16.25;9.82;;;13.40;45.80;;;;;;5031344;28;20052;-73
2022/03/11 12:14:04;;;;;;;13.85;9.30;;;13.60;45.20;;;;;;5053483;28;20571;-73
2022/03/11 12:17:18;;;;;;;20.15;10.80;;;13.50;45.50;;;;;;5054094;28;20029;-73
2022/03/11 12:19:44;;;;;;;14.90;9.75;;;13.80;44.40;;;;;;5035213;28;20045;-70
2022/03/11 12:22:31;;;;;;;15.40;9.30;;;13.90;45.00;;;;;;5053148;28;20029;-72
2022/03/11 12:25:06;;;;;;;15.70;9.77;;;14.30;43.70;;;;;;5052808;28;20056;-72
2022/03/11 12:28:00;;;;;;;16.88;10.40;;;14.50;43.90;;;;;;5052189;28;20379;-73
2022/03/11 12:30:34;;;;;;;15.98;9.93;;;14.80;43.40;;;;;;5053579;28;20041;-73
2022/03/11 12:33:06;;;;;;;21.10;9.30;;;14.90;43.80;;;;;;5052623;28;20063;-73
2022/03/11 12:35:32;;;;;;;17.02;9.63;;;14.90;42.90;;;;;;5053828;28;20036;-72
2022/03/11 12:37:59;;;;;;;14.05;10.35;;;14.90;43.00;;;;;;5052579;28;20112;-73
2022/03/11 12:40:26;;;;;;;16.50;9.63;;;15.00;42.70;;;;;;5053036;28;20112;-74
2022/03/11 12:43:02;;;;;;;13.43;9.60;;;15.10;42.40;;;;;;5052801;28;20025;-74